Time;durP1;ratioP1;P1;durP2;ratioP2;P2;SDS_P1;SDS_P2;PMS_P1;PMS_P2;Temp;Humidity;BMP_temperature;BMP_pressure;BME280_temperature;BME280_humidity;BME280_pressure;Samples;Min_cycle;Max_cycle;Signal;HPM_P1;HPM_P2
2022/10/19 00:01:21;;;;;;;0.30;0.30;;;;;;;;;;5009791;28;20179;-76
2022/10/19 00:03:48;;;;;;;0.10;0.10;;;;;;;;;;5009739;28;20191;-76
2022/10/19 00:06:24;;;;;;;0.20;0.20;;;;;;;;;;5003396;28;20180;-79
2022/10/19 00:08:49;;;;;;;0.23;0.23;;;;;;;;;;5016560;28;20738;-77
2022/10/19 00:11:15;;;;;;;0.20;0.20;;;;;;;;;;5007194;28;20214;-76
2022/10/19 00:13:40;;;;;;;0.20;0.20;;;;;;;;;;5007598;28;20183;-76
2022/10/19 00:16:10;;;;;;;0.20;0.20;;;;;;;;;;5005690;28;20179;-78
2022/10/19 00:18:35;;;;;;;0.20;0.20;;;;;;;;;;5021934;28;20188;-79
2022/10/19 00:21:04;;;;;;;0.20;0.20;;;;;;;;;;5005916;28;20549;-76
2022/10/19 00:23:29;;;;;;;0.20;0.20;;;;;;;;;;5002524;28;20179;-76
2022/10/19 00:25:55;;;;;;;0.20;0.20;;;;;;;;;;5006678;28;20172;-77
2022/10/19 00:28:20;;;;;;;0.20;0.20;;;;;;;;;;5008714;28;20207;-77
2022/10/19 00:30:46;;;;;;;0.20;0.20;;;;;;;;;;5007996;28;20720;-77
2022/10/19 00:33:11;;;;;;;0.20;0.20;;;;;;;;;;5007507;28;20262;-77
2022/10/19 00:35:39;;;;;;;0.30;0.30;;;;;;;;;;5008596;28;20229;-76
2022/10/19 00:38:04;;;;;;;0.20;0.20;;;;;;;;;;5005712;28;20278;-76
2022/10/19 00:40:35;;;;;;;0.20;0.20;;;;;;;;;;5003658;28;20247;-77
2022/10/19 00:43:00;;;;;;;0.20;0.20;;;;;;;;;;5007455;28;20233;-77
2022/10/19 00:45:26;;;;;;;0.20;0.20;;;;;;;;;;5011053;28;20187;-78
2022/10/19 00:47:51;;;;;;;0.20;0.20;;;;;;;;;;5007234;28;20199;-78
2022/10/19 00:50:17;;;;;;;0.30;0.30;;;;;;;;;;5008624;28;20191;-76
2022/10/19 00:52:42;;;;;;;0.20;0.20;;;;;;;;;;5019223;28;20641;-76
2022/10/19 00:55:08;;;;;;;0.23;0.23;;;;;;;;;;5007598;28;20171;-76
2022/10/19 00:57:33;;;;;;;0.20;0.20;;;;;;;;;;5016329;28;20279;-76
2022/10/19 00:59:59;;;;;;;0.20;0.20;;;;;;;;;;5007530;28;20194;-76
2022/10/19 01:02:25;;;;;;;0.20;0.20;;;;;;;;;;5004792;28;20550;-77
2022/10/19 01:04:51;;;;;;;0.30;0.30;;;;;;;;;;5008184;28;20179;-77
2022/10/19 01:07:16;;;;;;;0.30;0.30;;;;;;;;;;5006730;28;20569;-78
2022/10/19 01:09:42;;;;;;;0.20;0.20;;;;;;;;;;5005099;28;20191;-77
2022/10/19 01:12:16;;;;;;;0.20;0.20;;;;;;;;;;5001363;28;20624;-77
2022/10/19 01:14:48;;;;;;;0.30;0.30;;;;;;;;;;5007473;28;20202;-77
2022/10/19 01:17:30;;;;;;;0.30;0.30;;;;;;;;;;5007250;28;20572;-77
2022/10/19 01:20:07;;;;;;;0.20;0.20;;;;;;;;;;5004734;28;20191;-76
2022/10/19 01:23:05;;;;;;;0.27;0.27;;;;;;;;;;5005754;28;20263;-75
2022/10/19 01:25:49;;;;;;;0.20;0.20;;;;;;;;;;4994779;28;20195;-76
2022/10/19 01:28:47;;;;;;;0.20;0.20;;;;;;;;;;5004272;28;20586;-77
2022/10/19 01:31:35;;;;;;;0.20;0.20;;;;;;;;;;4992551;28;20235;-75
2022/10/19 01:34:00;;;;;;;0.20;0.20;;;;;;;;;;5003710;28;20295;-75
2022/10/19 01:36:34;;;;;;;0.20;0.20;;;;;;;;;;5005403;28;20266;-75
2022/10/19 01:39:05;;;;;;;0.20;0.20;;;;;;;;;;5004029;28;20225;-77
2022/10/19 01:41:34;;;;;;;0.20;0.20;;;;;;;;;;5006458;28;20192;-76
2022/10/19 01:44:10;;;;;;;0.10;0.10;;;;;;;;;;5010810;28;20179;-76
2022/10/19 01:46:38;;;;;;;0.20;0.20;;;;;;;;;;5005931;28;20171;-76
2022/10/19 01:49:29;;;;;;;0.30;0.30;;;;;;;;;;5005090;28;20286;-77
2022/10/19 01:51:57;;;;;;;0.20;0.20;;;;;;;;;;5013500;28;20191;-77
2022/10/19 01:54:25;;;;;;;0.20;0.20;;;;;;;;;;5006229;28;20183;-77
2022/10/19 01:56:51;;;;;;;0.20;0.20;;;;;;;;;;5002911;28;20187;-77
2022/10/19 01:59:17;;;;;;;0.30;0.30;;;;;;;;;;5003982;28;20722;-78
2022/10/19 02:01:44;;;;;;;0.20;0.20;;;;;;;;;;5004107;28;20179;-77
2022/10/19 02:04:11;;;;;;;0.20;0.20;;;;;;;;;;5008270;28;20179;-76
2022/10/19 02:06:36;;;;;;;0.20;0.20;;;;;;;;;;5006752;28;20588;-77
2022/10/19 02:09:01;;;;;;;0.20;0.20;;;;;;;;;;5025143;28;20248;-76
2022/10/19 02:11:28;;;;;;;0.20;0.20;;;;;;;;;;5009245;28;20179;-78
2022/10/19 02:14:13;;;;;;;0.20;0.20;;;;;;;;;;5008827;28;20667;-78
2022/10/19 02:16:56;;;;;;;0.20;0.20;;;;;;;;;;5006485;28;20199;-78
2022/10/19 02:19:22;;;;;;;0.20;0.20;;;;;;;;;;5007298;28;20176;-76
2022/10/19 02:21:47;;;;;;;0.27;0.27;;;;;;;;;;5011616;28;20567;-76
2022/10/19 02:24:12;;;;;;;0.30;0.30;;;;;;;;;;5003904;28;20263;-78
2022/10/19 02:26:38;;;;;;;0.30;0.30;;;;;;;;;;5008648;28;20604;-77
2022/10/19 02:29:03;;;;;;;0.20;0.20;;;;;;;;;;5006052;28;20196;-77
2022/10/19 02:31:29;;;;;;;0.20;0.20;;;;;;;;;;5007585;28;20172;-78
2022/10/19 02:33:54;;;;;;;0.23;0.23;;;;;;;;;;5006746;28;20653;-78
2022/10/19 02:36:21;;;;;;;0.30;0.30;;;;;;;;;;5007511;28;20171;-78
2022/10/19 02:38:46;;;;;;;0.30;0.30;;;;;;;;;;5007383;28;20227;-78
2022/10/19 02:41:23;;;;;;;0.30;0.30;;;;;;;;;;5004261;28;20182;-76
2022/10/19 02:43:51;;;;;;;0.20;0.20;;;;;;;;;;5010496;28;20179;-78
2022/10/19 02:46:29;;;;;;;0.30;0.30;;;;;;;;;;5007396;28;20194;-77
2022/10/19 02:48:55;;;;;;;0.30;0.30;;;;;;;;;;5004838;28;20286;-78
2022/10/19 02:51:28;;;;;;;0.30;0.30;;;;;;;;;;5009080;28;20225;-77
2022/10/19 02:53:53;;;;;;;0.20;0.20;;;;;;;;;;5006930;28;20183;-78
2022/10/19 02:56:19;;;;;;;0.20;0.20;;;;;;;;;;5009774;28;20176;-76
2022/10/19 02:58:44;;;;;;;0.30;0.30;;;;;;;;;;5023511;28;20795;-76
2022/10/19 03:01:09;;;;;;;0.30;0.30;;;;;;;;;;5006429;28;20184;-76
2022/10/19 03:03:34;;;;;;;0.30;0.30;;;;;;;;;;5009723;28;20266;-80
2022/10/19 03:05:59;;;;;;;0.20;0.20;;;;;;;;;;5004981;28;20259;-79
2022/10/19 03:08:25;;;;;;;0.20;0.20;;;;;;;;;;5019720;28;20199;-80
2022/10/19 03:10:50;;;;;;;0.30;0.30;;;;;;;;;;5024633;28;20179;-79
2022/10/19 03:13:15;;;;;;;0.30;0.30;;;;;;;;;;5009389;28;20271;-80
2022/10/19 03:15:40;;;;;;;0.20;0.20;;;;;;;;;;5009639;28;20199;-79
2022/10/19 03:18:05;;;;;;;0.20;0.20;;;;;;;;;;5008035;28;20287;-79
2022/10/19 03:20:31;;;;;;;0.30;0.30;;;;;;;;;;5006051;28;20266;-77
2022/10/19 03:22:56;;;;;;;0.27;0.27;;;;;;;;;;5007118;28;20215;-79
2022/10/19 03:25:21;;;;;;;0.20;0.20;;;;;;;;;;5009692;28;20180;-78
2022/10/19 03:27:46;;;;;;;0.20;0.20;;;;;;;;;;5007985;28;20203;-78
2022/10/19 03:30:12;;;;;;;0.20;0.20;;;;;;;;;;5008441;28;20195;-78
2022/10/19 03:32:37;;;;;;;0.20;0.20;;;;;;;;;;5021206;28;20551;-78
2022/10/19 03:35:02;;;;;;;0.30;0.30;;;;;;;;;;5006451;28;20267;-78
2022/10/19 03:37:27;;;;;;;0.20;0.20;;;;;;;;;;5002374;28;20195;-80
2022/10/19 03:39:53;;;;;;;0.30;0.30;;;;;;;;;;5009745;28;20210;-79
2022/10/19 03:42:18;;;;;;;0.20;0.20;;;;;;;;;;5008557;28;20176;-79
2022/10/19 03:44:43;;;;;;;0.30;0.30;;;;;;;;;;5010458;28;20172;-79
2022/10/19 03:47:08;;;;;;;0.20;0.20;;;;;;;;;;5005523;28;20206;-79
2022/10/19 03:49:33;;;;;;;0.20;0.20;;;;;;;;;;5007346;28;20188;-79
2022/10/19 03:51:59;;;;;;;0.30;0.30;;;;;;;;;;5005441;28;20183;-79
2022/10/19 03:54:24;;;;;;;0.83;0.83;;;;;;;;;;5005761;28;20187;-79
2022/10/19 03:56:49;;;;;;;0.30;0.30;;;;;;;;;;5007668;28;20192;-79
2022/10/19 03:59:15;;;;;;;0.20;0.20;;;;;;;;;;5007101;28;20192;-79
2022/10/19 04:01:41;;;;;;;0.20;0.20;;;;;;;;;;5008393;28;20321;-79
2022/10/19 04:04:09;;;;;;;0.20;0.20;;;;;;;;;;5006492;28;20727;-78
2022/10/19 04:06:37;;;;;;;0.30;0.30;;;;;;;;;;5006773;28;20273;-79
2022/10/19 04:09:02;;;;;;;0.20;0.20;;;;;;;;;;5003835;28;20214;-79
2022/10/19 04:11:29;;;;;;;0.30;0.30;;;;;;;;;;5005252;28;20655;-79
2022/10/19 04:13:55;;;;;;;0.30;0.30;;;;;;;;;;5008164;28;20186;-79
2022/10/19 04:16:21;;;;;;;0.20;0.20;;;;;;;;;;5006343;28;20237;-79
2022/10/19 04:18:47;;;;;;;0.20;0.20;;;;;;;;;;5006363;28;20190;-80
2022/10/19 04:21:23;;;;;;;0.20;0.20;;;;;;;;;;5005070;28;20191;-79
2022/10/19 04:23:48;;;;;;;0.20;0.20;;;;;;;;;;5004340;28;20619;-79
2022/10/19 04:26:14;;;;;;;0.20;0.20;;;;;;;;;;5003631;28;20184;-79
2022/10/19 04:28:39;;;;;;;0.20;0.20;;;;;;;;;;5007555;28;20255;-79
2022/10/19 04:31:05;;;;;;;0.30;0.30;;;;;;;;;;5007997;28;20210;-79
2022/10/19 04:33:30;;;;;;;0.20;0.20;;;;;;;;;;5007037;28;20183;-78
2022/10/19 04:36:06;;;;;;;0.20;0.20;;;;;;;;;;5005966;28;20179;-78
2022/10/19 04:38:32;;;;;;;0.27;0.27;;;;;;;;;;5004201;28;20667;-78
2022/10/19 04:41:04;;;;;;;0.20;0.20;;;;;;;;;;5001673;28;20267;-78
2022/10/19 04:43:30;;;;;;;0.30;0.30;;;;;;;;;;5004673;28;20202;-78
2022/10/19 04:45:55;;;;;;;0.20;0.20;;;;;;;;;;5009915;28;20972;-77
2022/10/19 04:48:20;;;;;;;0.30;0.30;;;;;;;;;;5004391;28;20199;-78
2022/10/19 04:50:45;;;;;;;0.20;0.20;;;;;;;;;;5006014;28;20253;-77
2022/10/19 04:53:11;;;;;;;0.30;0.30;;;;;;;;;;5017287;28;20263;-78
2022/10/19 04:55:40;;;;;;;0.30;0.30;;;;;;;;;;5005067;28;20632;-77
2022/10/19 04:58:05;;;;;;;0.30;0.30;;;;;;;;;;5002531;28;20698;-78
2022/10/19 05:00:30;;;;;;;0.20;0.20;;;;;;;;;;5006842;28;20218;-77
2022/10/19 05:02:55;;;;;;;0.20;0.20;;;;;;;;;;5008806;28;20179;-77
2022/10/19 05:05:20;;;;;;;0.30;0.30;;;;;;;;;;5006597;28;20644;-76
2022/10/19 05:07:47;;;;;;;0.20;0.20;;;;;;;;;;5007207;28;20203;-78
2022/10/19 05:10:12;;;;;;;0.30;0.30;;;;;;;;;;5004355;28;20227;-76
2022/10/19 05:12:37;;;;;;;0.20;0.20;;;;;;;;;;5007028;28;20442;-77
2022/10/19 05:15:03;;;;;;;0.30;0.30;;;;;;;;;;5006977;28;20183;-76
2022/10/19 05:17:29;;;;;;;0.20;0.20;;;;;;;;;;5006276;28;20728;-74
2022/10/19 05:19:54;;;;;;;0.20;0.20;;;;;;;;;;5006803;28;20679;-76
2022/10/19 05:22:20;;;;;;;0.20;0.20;;;;;;;;;;5003946;28;20237;-76
2022/10/19 05:24:45;;;;;;;0.20;0.20;;;;;;;;;;5005293;28;20206;-75
2022/10/19 05:27:10;;;;;;;0.23;0.23;;;;;;;;;;5017335;28;20207;-75
2022/10/19 05:29:35;;;;;;;0.30;0.30;;;;;;;;;;5004294;28;20208;-76
2022/10/19 05:32:00;;;;;;;0.20;0.20;;;;;;;;;;5007634;28;20203;-75
2022/10/19 05:34:26;;;;;;;0.30;0.30;;;;;;;;;;5006289;28;20254;-77
2022/10/19 05:36:53;;;;;;;0.20;0.20;;;;;;;;;;5006482;28;20245;-76
2022/10/19 05:39:19;;;;;;;0.20;0.20;;;;;;;;;;5022583;28;20195;-76
2022/10/19 05:41:44;;;;;;;0.30;0.30;;;;;;;;;;5008289;28;20171;-76
2022/10/19 05:44:12;;;;;;;0.30;0.30;;;;;;;;;;5007914;28;20767;-76
2022/10/19 05:46:37;;;;;;;0.20;0.20;;;;;;;;;;5009501;28;20202;-75
2022/10/19 05:49:03;;;;;;;0.20;0.20;;;;;;;;;;5011577;28;20586;-76
2022/10/19 05:51:28;;;;;;;0.20;0.20;;;;;;;;;;5010672;28;20512;-75
2022/10/19 05:53:53;;;;;;;0.30;0.30;;;;;;;;;;5011118;28;20242;-75
2022/10/19 05:56:20;;;;;;;0.20;0.20;;;;;;;;;;5008905;28;20167;-77
2022/10/19 05:58:46;;;;;;;0.20;0.20;;;;;;;;;;5010699;28;20202;-75
2022/10/19 06:01:11;;;;;;;0.20;0.20;;;;;;;;;;5010809;28;20183;-75
2022/10/19 06:03:37;;;;;;;0.20;0.20;;;;;;;;;;5010128;28;20266;-75
2022/10/19 06:06:03;;;;;;;0.20;0.20;;;;;;;;;;5010895;28;20338;-75
2022/10/19 06:08:28;;;;;;;0.20;0.20;;;;;;;;;;5004882;28;20616;-75
2022/10/19 06:11:02;;;;;;;0.20;0.20;;;;;;;;;;5009312;28;20174;-76
2022/10/19 06:13:27;;;;;;;0.20;0.20;;;;;;;;;;5008823;28;20226;-76
2022/10/19 06:15:53;;;;;;;0.30;0.30;;;;;;;;;;5018998;28;20173;-75
2022/10/19 06:18:18;;;;;;;0.20;0.20;;;;;;;;;;5010802;28;20191;-75
2022/10/19 06:20:43;;;;;;;0.23;0.23;;;;;;;;;;5007842;28;20226;-75
2022/10/19 06:23:09;;;;;;;0.20;0.20;;;;;;;;;;5009394;28;20188;-75
2022/10/19 06:25:34;;;;;;;0.20;0.20;;;;;;;;;;5009641;28;20255;-75
2022/10/19 06:28:00;;;;;;;0.20;0.20;;;;;;;;;;5005497;28;20200;-75
2022/10/19 06:30:25;;;;;;;0.20;0.20;;;;;;;;;;5008598;28;20183;-75
2022/10/19 06:32:51;;;;;;;0.30;0.30;;;;;;;;;;5006686;28;20662;-75
2022/10/19 06:35:16;;;;;;;0.23;0.23;;;;;;;;;;5007215;28;20171;-75
2022/10/19 06:37:41;;;;;;;0.20;0.20;;;;;;;;;;5009446;28;20218;-75
2022/10/19 06:40:07;;;;;;;0.30;0.30;;;;;;;;;;5008457;28;20286;-75
2022/10/19 06:42:32;;;;;;;0.30;0.30;;;;;;;;;;5009210;28;20191;-75
2022/10/19 06:44:58;;;;;;;0.20;0.20;;;;;;;;;;5009446;28;20187;-74
2022/10/19 06:47:29;;;;;;;0.20;0.20;;;;;;;;;;5006301;28;20282;-74
2022/10/19 06:49:55;;;;;;;0.20;0.20;;;;;;;;;;5006206;28;20347;-74
2022/10/19 06:52:20;;;;;;;0.30;0.30;;;;;;;;;;5009717;28;20260;-75
2022/10/19 06:54:45;;;;;;;0.30;0.30;;;;;;;;;;5010706;28;20170;-75
2022/10/19 06:57:10;;;;;;;0.30;0.30;;;;;;;;;;5006665;28;20198;-77
2022/10/19 06:59:35;;;;;;;0.30;0.30;;;;;;;;;;5009034;28;20187;-74
2022/10/19 07:02:01;;;;;;;0.20;0.20;;;;;;;;;;5007126;28;20180;-74
2022/10/19 07:04:26;;;;;;;0.30;0.30;;;;;;;;;;5010257;28;20389;-73
2022/10/19 07:06:52;;;;;;;0.87;0.87;;;;;;;;;;5005577;28;20207;-75
2022/10/19 07:09:18;;;;;;;0.30;0.30;;;;;;;;;;5006712;28;20414;-77
2022/10/19 07:11:43;;;;;;;0.30;0.30;;;;;;;;;;5008734;28;20195;-75
2022/10/19 07:14:09;;;;;;;0.30;0.30;;;;;;;;;;5006961;28;20277;-77
2022/10/19 07:16:34;;;;;;;0.20;0.20;;;;;;;;;;5007513;28;20194;-75
2022/10/19 07:18:59;;;;;;;0.20;0.20;;;;;;;;;;5006854;28;20172;-76
2022/10/19 07:21:24;;;;;;;0.30;0.30;;;;;;;;;;5005864;28;20178;-77
2022/10/19 07:23:49;;;;;;;0.30;0.30;;;;;;;;;;5010200;28;20182;-75
2022/10/19 07:26:15;;;;;;;0.30;0.30;;;;;;;;;;5007832;28;20176;-75
2022/10/19 07:28:42;;;;;;;0.27;0.27;;;;;;;;;;5008407;28;20195;-77
2022/10/19 07:31:09;;;;;;;0.30;0.30;;;;;;;;;;5004013;28;20241;-77
2022/10/19 07:33:35;;;;;;;0.30;0.30;;;;;;;;;;5016458;28;20181;-77
2022/10/19 07:36:01;;;;;;;0.20;0.20;;;;;;;;;;5004684;28;20187;-77
2022/10/19 07:38:28;;;;;;;0.30;0.30;;;;;;;;;;5005689;28;20266;-78
2022/10/19 07:41:01;;;;;;;0.30;0.30;;;;;;;;;;5005162;28;20187;-75
2022/10/19 07:43:26;;;;;;;0.30;0.30;;;;;;;;;;5008076;28;20269;-77
2022/10/19 07:45:57;;;;;;;0.30;0.30;;;;;;;;;;5009612;28;20199;-76
2022/10/19 07:48:22;;;;;;;0.20;0.20;;;;;;;;;;5004037;28;20198;-76
2022/10/19 07:50:47;;;;;;;0.30;0.30;;;;;;;;;;5006264;28;20187;-74
2022/10/19 07:53:13;;;;;;;0.30;0.30;;;;;;;;;;5006973;28;20258;-75
2022/10/19 07:55:38;;;;;;;6.93;6.33;;;;;;;;;;5005392;28;20196;-75
2022/10/19 07:58:03;;;;;;;0.20;0.20;;;;;;;;;;5007330;28;20286;-76
2022/10/19 08:00:28;;;;;;;0.27;0.27;;;;;;;;;;5008547;28;20270;-74
2022/10/19 08:02:54;;;;;;;0.23;0.23;;;;;;;;;;5009318;28;20190;-77
2022/10/19 08:05:19;;;;;;;0.20;0.20;;;;;;;;;;5021247;28;20190;-77
2022/10/19 08:07:45;;;;;;;0.30;0.30;;;;;;;;;;5006544;28;20203;-74
2022/10/19 08:10:11;;;;;;;0.27;0.27;;;;;;;;;;5005455;28;20286;-77
2022/10/19 08:12:36;;;;;;;0.30;0.30;;;;;;;;;;5004485;28;20216;-78
2022/10/19 08:15:05;;;;;;;0.30;0.30;;;;;;;;;;5007816;28;20195;-74
2022/10/19 08:17:30;;;;;;;0.30;0.30;;;;;;;;;;5006815;28;20202;-74
2022/10/19 08:19:55;;;;;;;0.30;0.30;;;;;;;;;;5007013;28;20180;-76
2022/10/19 08:22:21;;;;;;;0.30;0.30;;;;;;;;;;5006140;28;20181;-74
2022/10/19 08:24:47;;;;;;;0.30;0.30;;;;;;;;;;5002898;28;20455;-76
2022/10/19 08:27:13;;;;;;;0.30;0.30;;;;;;;;;;5003816;28;20204;-75
2022/10/19 08:29:39;;;;;;;0.30;0.30;;;;;;;;;;5001959;28;20202;-77
2022/10/19 08:32:04;;;;;;;0.30;0.30;;;;;;;;;;5006829;28;20254;-76
2022/10/19 08:34:29;;;;;;;0.30;0.30;;;;;;;;;;5006454;28;20207;-76
2022/10/19 08:36:54;;;;;;;0.30;0.30;;;;;;;;;;5006853;28;20261;-77
2022/10/19 08:39:20;;;;;;;0.30;0.30;;;;;;;;;;5005312;28;20266;-76
2022/10/19 08:41:54;;;;;;;0.30;0.30;;;;;;;;;;5005552;28;20187;-76
2022/10/19 08:44:38;;;;;;;0.30;0.30;;;;;;;;;;5009357;28;20206;-76
2022/10/19 08:47:18;;;;;;;0.30;0.30;;;;;;;;;;5005004;28;20612;-76
2022/10/19 08:49:44;;;;;;;0.30;0.30;;;;;;;;;;5004613;28;20282;-76
2022/10/19 08:52:11;;;;;;;0.30;0.30;;;;;;;;;;5005786;28;20267;-77
2022/10/19 08:54:40;;;;;;;0.30;0.30;;;;;;;;;;5005504;28;20621;-77
2022/10/19 08:57:12;;;;;;;0.30;0.30;;;;;;;;;;5005760;28;20211;-76
2022/10/19 08:59:46;;;;;;;0.30;0.30;;;;;;;;;;5004333;28;20206;-76
2022/10/19 09:02:20;;;;;;;0.30;0.30;;;;;;;;;;5006825;28;20262;-76
2022/10/19 09:04:55;;;;;;;0.30;0.30;;;;;;;;;;5004980;28;20259;-76
2022/10/19 09:07:28;;;;;;;0.30;0.30;;;;;;;;;;5005683;28;20249;-76
2022/10/19 09:09:54;;;;;;;0.30;0.30;;;;;;;;;;5007348;28;20187;-76
2022/10/19 09:12:27;;;;;;;0.30;0.30;;;;;;;;;;5008338;28;20245;-76
2022/10/19 09:14:57;;;;;;;0.30;0.30;;;;;;;;;;5003983;28;20231;-76
2022/10/19 09:17:24;;;;;;;0.30;0.30;;;;;;;;;;5008775;28;20629;-76
2022/10/19 09:19:49;;;;;;;0.30;0.30;;;;;;;;;;5011664;28;20178;-76
2022/10/19 09:22:18;;;;;;;0.30;0.30;;;;;;;;;;5011175;28;20573;-76
2022/10/19 09:24:51;;;;;;;0.30;0.30;;;;;;;;;;5009167;28;20735;-76
2022/10/19 09:27:21;;;;;;;0.30;0.30;;;;;;;;;;5020608;28;20328;-76
2022/10/19 09:29:49;;;;;;;0.30;0.30;;;;;;;;;;5007258;28;20953;-76
2022/10/19 09:32:21;;;;;;;0.30;0.30;;;;;;;;;;5008559;28;20667;-76
2022/10/19 09:34:49;;;;;;;0.30;0.30;;;;;;;;;;5010525;28;20175;-76
2022/10/19 09:37:14;;;;;;;0.30;0.30;;;;;;;;;;5009709;28;20286;-76
2022/10/19 09:39:39;;;;;;;0.30;0.30;;;;;;;;;;5009002;28;20257;-77
2022/10/19 09:42:17;;;;;;;0.28;0.28;;;;;;;;;;5007649;28;20187;-76
2022/10/19 09:44:42;;;;;;;0.30;0.30;;;;;;;;;;5005429;28;20210;-75
2022/10/19 09:47:16;;;;;;;0.30;0.30;;;;;;;;;;5005019;28;20239;-75
2022/10/19 09:49:46;;;;;;;0.20;0.20;;;;;;;;;;5011158;28;20680;-77
2022/10/19 09:52:30;;;;;;;0.30;0.30;;;;;;;;;;5010032;28;20176;-74
2022/10/19 09:55:16;;;;;;;0.28;0.28;;;;;;;;;;5023674;28;20179;-76
2022/10/19 09:57:45;;;;;;;0.25;0.25;;;;;;;;;;5006689;28;20199;-76
2022/10/19 10:00:18;;;;;;;0.30;0.30;;;;;;;;;;5008938;28;20191;-76
2022/10/19 10:02:47;;;;;;;0.25;0.25;;;;;;;;;;5006072;28;20175;-76
2022/10/19 10:05:13;;;;;;;0.30;0.30;;;;;;;;;;5010962;28;20182;-76
2022/10/19 10:07:39;;;;;;;0.30;0.30;;;;;;;;;;5010891;28;20207;-76
2022/10/19 10:10:19;;;;;;;0.30;0.30;;;;;;;;;;5009657;28;20750;-76
2022/10/19 10:12:45;;;;;;;0.30;0.30;;;;;;;;;;5005577;28;20171;-76
2022/10/19 10:15:14;;;;;;;0.30;0.30;;;;;;;;;;5011781;28;20790;-77
2022/10/19 10:17:43;;;;;;;0.30;0.30;;;;;;;;;;5004344;28;20202;-76
2022/10/19 10:20:23;;;;;;;0.28;0.28;;;;;;;;;;5007058;28;20180;-76
2022/10/19 10:22:52;;;;;;;0.30;0.30;;;;;;;;;;5021549;28;20186;-77
2022/10/19 10:25:18;;;;;;;0.30;0.30;;;;;;;;;;5009204;28;20187;-76
2022/10/19 10:27:52;;;;;;;0.30;0.30;;;;;;;;;;5007194;28;20631;-77
2022/10/19 10:30:17;;;;;;;0.30;0.30;;;;;;;;;;5009089;28;20606;-77
2022/10/19 10:32:48;;;;;;;0.30;0.30;;;;;;;;;;5007161;28;20182;-76
2022/10/19 10:35:18;;;;;;;0.30;0.30;;;;;;;;;;5006495;28;20564;-76
2022/10/19 10:37:44;;;;;;;0.30;0.30;;;;;;;;;;5011665;28;20191;-77
2022/10/19 10:40:19;;;;;;;0.30;0.30;;;;;;;;;;5009005;28;20180;-76
2022/10/19 10:42:45;;;;;;;0.30;0.30;;;;;;;;;;5006336;28;20175;-76
2022/10/19 10:45:19;;;;;;;0.30;0.30;;;;;;;;;;5009609;28;20203;-76
2022/10/19 10:47:47;;;;;;;0.30;0.30;;;;;;;;;;5021566;28;20345;-76
2022/10/19 10:50:32;;;;;;;0.30;0.30;;;;;;;;;;5005369;28;20207;-76
2022/10/19 10:53:06;;;;;;;0.30;0.30;;;;;;;;;;5003196;28;20186;-77
2022/10/19 10:55:32;;;;;;;0.30;0.30;;;;;;;;;;5012700;28;20191;-76
2022/10/19 10:58:03;;;;;;;0.30;0.30;;;;;;;;;;5006765;28;20206;-76
2022/10/19 11:00:29;;;;;;;0.30;0.30;;;;;;;;;;5008926;28;20175;-76
2022/10/19 11:03:17;;;;;;;0.30;0.30;;;;;;;;;;5008304;28;20195;-76
2022/10/19 11:05:44;;;;;;;0.30;0.30;;;;;;;;;;5006124;28;20198;-76
2022/10/19 11:08:28;;;;;;;0.30;0.30;;;;;;;;;;5005445;28;20215;-77
2022/10/19 11:10:56;;;;;;;0.30;0.30;;;;;;;;;;5006446;28;20728;-76
2022/10/19 11:13:21;;;;;;;1.20;1.20;;;;;;;;;;5008754;28;20186;-77
2022/10/19 11:15:52;;;;;;;0.30;0.30;;;;;;;;;;5007381;28;20171;-76
2022/10/19 11:18:17;;;;;;;0.30;0.30;;;;;;;;;;5006711;28;20219;-78
2022/10/19 11:20:48;;;;;;;0.28;0.28;;;;;;;;;;5004954;28;20168;-77
2022/10/19 11:23:18;;;;;;;0.30;0.30;;;;;;;;;;5005124;28;20174;-76
2022/10/19 11:25:56;;;;;;;0.30;0.30;;;;;;;;;;5008325;28;20190;-77
2022/10/19 11:28:28;;;;;;;0.30;0.30;;;;;;;;;;5007621;28;20191;-77
2022/10/19 11:31:05;;;;;;;0.30;0.30;;;;;;;;;;5006954;28;20194;-77
2022/10/19 11:33:39;;;;;;;0.30;0.30;;;;;;;;;;5006448;28;20175;-77
2022/10/19 11:36:13;;;;;;;0.30;0.30;;;;;;;;;;5005439;28;20183;-77
2022/10/19 11:38:57;;;;;;;0.30;0.30;;;;;;;;;;5003067;28;20829;-76
2022/10/19 11:41:28;;;;;;;0.30;0.30;;;;;;;;;;5009294;28;20186;-76
2022/10/19 11:44:08;;;;;;;0.30;0.30;;;;;;;;;;5009411;28;20167;-77
2022/10/19 11:46:36;;;;;;;0.30;0.30;;;;;;;;;;5005314;28;20171;-76
2022/10/19 11:49:02;;;;;;;0.30;0.30;;;;;;;;;;5006792;28;20983;-76
2022/10/19 11:51:30;;;;;;;0.30;0.30;;;;;;;;;;5007137;28;20199;-76
2022/10/19 11:54:01;;;;;;;0.30;0.30;;;;;;;;;;5005617;28;20175;-76
2022/10/19 11:56:34;;;;;;;0.30;0.30;;;;;;;;;;5007127;28;20246;-76
2022/10/19 11:59:13;;;;;;;0.30;0.30;;;;;;;;;;5007980;28;20218;-76
2022/10/19 12:01:38;;;;;;;0.35;0.35;;;;;;;;;;5007849;28;20249;-77
2022/10/19 12:04:15;;;;;;;0.30;0.30;;;;;;;;;;5008702;28;20180;-77
2022/10/19 12:07:03;;;;;;;0.30;0.30;;;;;;;;;;5004854;28;20783;-77
2022/10/19 12:09:31;;;;;;;0.30;0.30;;;;;;;;;;5000629;28;20245;-77
2022/10/19 12:12:17;;;;;;;0.30;0.30;;;;;;;;;;5008510;28;20743;-77
2022/10/19 12:14:44;;;;;;;0.30;0.30;;;;;;;;;;5005136;28;20167;-77
2022/10/19 12:17:14;;;;;;;0.30;0.30;;;;;;;;;;5005830;28;20192;-76
2022/10/19 12:19:45;;;;;;;0.30;0.30;;;;;;;;;;5007295;28;20206;-76
2022/10/19 12:22:14;;;;;;;0.30;0.30;;;;;;;;;;5005344;28;20187;-76
2022/10/19 12:24:39;;;;;;;0.30;0.30;;;;;;;;;;5003104;28;20210;-76
2022/10/19 12:27:05;;;;;;;0.30;0.30;;;;;;;;;;5004425;28;20203;-77
2022/10/19 12:29:32;;;;;;;0.30;0.30;;;;;;;;;;5005540;28;20195;-77
2022/10/19 12:31:58;;;;;;;0.30;0.30;;;;;;;;;;5007185;28;20255;-76
2022/10/19 12:34:44;;;;;;;0.30;0.30;;;;;;;;;;5008158;28;20176;-76
2022/10/19 12:37:09;;;;;;;0.30;0.30;;;;;;;;;;5004264;28;20195;-76
2022/10/19 12:39:34;;;;;;;0.30;0.30;;;;;;;;;;5020183;28;20175;-76
2022/10/19 12:41:59;;;;;;;0.30;0.30;;;;;;;;;;5005029;28;20252;-76
2022/10/19 12:44:30;;;;;;;0.30;0.30;;;;;;;;;;5024466;28;20187;-76
2022/10/19 12:46:58;;;;;;;0.30;0.30;;;;;;;;;;5007369;28;20217;-76
2022/10/19 12:49:29;;;;;;;0.30;0.30;;;;;;;;;;5006803;28;20187;-77
2022/10/19 12:51:58;;;;;;;0.30;0.30;;;;;;;;;;5005788;28;20175;-76
2022/10/19 12:54:27;;;;;;;0.30;0.30;;;;;;;;;;5005811;28;20172;-76
2022/10/19 12:56:53;;;;;;;0.30;0.30;;;;;;;;;;5001218;28;20570;-76
2022/10/19 12:59:22;;;;;;;0.30;0.30;;;;;;;;;;5000603;28;20677;-76
2022/10/19 13:01:48;;;;;;;0.30;0.30;;;;;;;;;;5006156;28;20272;-76
2022/10/19 13:04:19;;;;;;;0.25;0.25;;;;;;;;;;5008287;28;20652;-76
2022/10/19 13:06:45;;;;;;;0.30;0.30;;;;;;;;;;5004279;28;20211;-77
2022/10/19 13:09:25;;;;;;;0.30;0.30;;;;;;;;;;5005529;28;20212;-76
2022/10/19 13:12:09;;;;;;;0.30;0.30;;;;;;;;;;5001801;28;20761;-77
2022/10/19 13:14:40;;;;;;;0.30;0.30;;;;;;;;;;5000531;28;20190;-74
2022/10/19 13:17:06;;;;;;;0.20;0.20;;;;;;;;;;5002885;28;20568;-77
2022/10/19 13:19:31;;;;;;;0.28;0.28;;;;;;;;;;5006331;28;20226;-76
2022/10/19 13:22:02;;;;;;;0.30;0.30;;;;;;;;;;5008269;28;20179;-77
2022/10/19 13:24:30;;;;;;;0.30;0.30;;;;;;;;;;5005949;28;20187;-76
2022/10/19 13:26:58;;;;;;;0.30;0.30;;;;;;;;;;5003106;28;20204;-76
2022/10/19 13:29:24;;;;;;;0.30;0.30;;;;;;;;;;5005793;28;20198;-77
2022/10/19 13:31:50;;;;;;;0.30;0.30;;;;;;;;;;5003872;28;20183;-74
2022/10/19 13:34:15;;;;;;;0.22;0.22;;;;;;;;;;5005158;28;20175;-77
2022/10/19 13:36:57;;;;;;;0.30;0.30;;;;;;;;;;5005728;28;20564;-76
2022/10/19 13:39:25;;;;;;;0.30;0.30;;;;;;;;;;5006556;28;20682;-76
2022/10/19 13:41:51;;;;;;;0.30;0.30;;;;;;;;;;5005006;28;20186;-76
2022/10/19 13:44:18;;;;;;;0.30;0.30;;;;;;;;;;5005587;28;20183;-78
2022/10/19 13:46:52;;;;;;;0.30;0.30;;;;;;;;;;5004176;28;20548;-76
2022/10/19 13:49:27;;;;;;;0.30;0.30;;;;;;;;;;5002289;28;20199;-77
2022/10/19 13:51:52;;;;;;;0.30;0.30;;;;;;;;;;5006200;28;20175;-77
2022/10/19 13:54:36;;;;;;;0.30;0.30;;;;;;;;;;5018653;28;20186;-76
2022/10/19 13:57:20;;;;;;;0.30;0.30;;;;;;;;;;5006183;28;20266;-77
2022/10/19 14:00:04;;;;;;;0.30;0.30;;;;;;;;;;5004575;28;20190;-77
2022/10/19 14:02:36;;;;;;;0.30;0.30;;;;;;;;;;5004754;28;20616;-76
2022/10/19 14:05:19;;;;;;;0.30;0.30;;;;;;;;;;5011694;28;20175;-76
2022/10/19 14:08:00;;;;;;;0.30;0.30;;;;;;;;;;5008832;28;20261;-76
2022/10/19 14:10:26;;;;;;;0.30;0.30;;;;;;;;;;5008527;28;20277;-76
2022/10/19 14:12:51;;;;;;;0.30;0.30;;;;;;;;;;5007302;28;20671;-76
2022/10/19 14:15:17;;;;;;;0.30;0.30;;;;;;;;;;5007727;28;20238;-76
2022/10/19 14:17:42;;;;;;;0.30;0.30;;;;;;;;;;5020947;28;20296;-76
2022/10/19 14:20:24;;;;;;;0.30;0.30;;;;;;;;;;5021683;28;20215;-75
2022/10/19 14:22:49;;;;;;;0.23;0.23;;;;;;;;;;5009816;28;20175;-76
2022/10/19 14:25:19;;;;;;;0.30;0.30;;;;;;;;;;5008892;28;20171;-76
2022/10/19 14:27:45;;;;;;;0.30;0.30;;;;;;;;;;5008271;28;20325;-76
2022/10/19 14:30:24;;;;;;;0.30;0.30;;;;;;;;;;5008144;28;20278;-76
2022/10/19 14:32:49;;;;;;;0.30;0.30;;;;;;;;;;5007362;28;20171;-76
2022/10/19 14:35:22;;;;;;;1.47;1.47;;;;;;;;;;5008280;28;20179;-77
2022/10/19 14:37:47;;;;;;;0.30;0.30;;;;;;;;;;5012546;28;20207;-76
2022/10/19 14:40:19;;;;;;;0.30;0.30;;;;;;;;;;5009192;28;20176;-76
2022/10/19 14:42:44;;;;;;;0.30;0.30;;;;;;;;;;5005881;28;20194;-76
2022/10/19 14:45:20;;;;;;;0.30;0.30;;;;;;;;;;5008740;28;20653;-76
2022/10/19 14:47:52;;;;;;;0.30;0.30;;;;;;;;;;5005320;28;20566;-77
2022/10/19 14:50:18;;;;;;;0.30;0.30;;;;;;;;;;5016861;28;20191;-76
2022/10/19 14:52:44;;;;;;;0.30;0.30;;;;;;;;;;5006860;28;20172;-77